sensor_id;sensor_type;location;lat;lon;timestamp;P1;durP1;ratioP1;P2;durP2;ratioP2
9409;SDS011;4744;52.576;13.568;2022-10-16T00:00:38;3.13;;;2.92;;
9409;SDS011;4744;52.576;13.568;2022-10-16T00:03:08;2.80;;;2.60;;
9409;SDS011;4744;52.576;13.568;2022-10-16T00:05:38;2.92;;;2.55;;
9409;SDS011;4744;52.576;13.568;2022-10-16T00:08:06;2.85;;;2.67;;
9409;SDS011;4744;52.576;13.568;2022-10-16T00:10:34;3.17;;;2.85;;
9409;SDS011;4744;52.576;13.568;2022-10-16T00:13:01;2.25;;;2.15;;
9409;SDS011;4744;52.576;13.568;2022-10-16T00:15:29;2.53;;;2.42;;
9409;SDS011;4744;52.576;13.568;2022-10-16T00:17:55;2.42;;;2.33;;
9409;SDS011;4744;52.576;13.568;2022-10-16T00:20:24;2.78;;;2.58;;
9409;SDS011;4744;52.576;13.568;2022-10-16T00:22:50;2.30;;;2.20;;
9409;SDS011;4744;52.576;13.568;2022-10-16T00:25:17;2.28;;;2.17;;
9409;SDS011;4744;52.576;13.568;2022-10-16T00:27:44;2.58;;;2.38;;
9409;SDS011;4744;52.576;13.568;2022-10-16T00:30:11;2.50;;;2.30;;
9409;SDS011;4744;52.576;13.568;2022-10-16T00:32:38;2.40;;;2.20;;
9409;SDS011;4744;52.576;13.568;2022-10-16T00:35:05;2.42;;;2.22;;
9409;SDS011;4744;52.576;13.568;2022-10-16T00:37:33;2.50;;;2.40;;
9409;SDS011;4744;52.576;13.568;2022-10-16T00:40:00;2.40;;;2.20;;
9409;SDS011;4744;52.576;13.568;2022-10-16T00:42:27;2.40;;;2.30;;
9409;SDS011;4744;52.576;13.568;2022-10-16T00:44:54;2.10;;;2.00;;
9409;SDS011;4744;52.576;13.568;2022-10-16T00:47:24;2.33;;;2.20;;
9409;SDS011;4744;52.576;13.568;2022-10-16T00:49:56;3.45;;;2.15;;
9409;SDS011;4744;52.576;13.568;2022-10-16T00:52:27;2.40;;;2.20;;
9409;SDS011;4744;52.576;13.568;2022-10-16T00:54:55;2.25;;;2.08;;
9409;SDS011;4744;52.576;13.568;2022-10-16T00:57:23;2.15;;;2.05;;
9409;SDS011;4744;52.576;13.568;2022-10-16T00:59:51;2.50;;;2.30;;
9409;SDS011;4744;52.576;13.568;2022-10-16T01:02:19;2.72;;;2.05;;
9409;SDS011;4744;52.576;13.568;2022-10-16T01:04:47;2.95;;;2.17;;
9409;SDS011;4744;52.576;13.568;2022-10-16T01:07:20;2.22;;;2.13;;
9409;SDS011;4744;52.576;13.568;2022-10-16T01:12:47;2.25;;;1.98;;
9409;SDS011;4744;52.576;13.568;2022-10-16T01:15:18;2.00;;;1.90;;
9409;SDS011;4744;52.576;13.568;2022-10-16T01:17:51;1.80;;;1.70;;
9409;SDS011;4744;52.576;13.568;2022-10-16T01:20:25;2.30;;;2.10;;
9409;SDS011;4744;52.576;13.568;2022-10-16T01:23:05;2.50;;;2.10;;
9409;SDS011;4744;52.576;13.568;2022-10-16T01:25:55;2.13;;;2.03;;
9409;SDS011;4744;52.576;13.568;2022-10-16T01:28:41;2.40;;;1.83;;
9409;SDS011;4744;52.576;13.568;2022-10-16T01:31:14;2.25;;;2.05;;
9409;SDS011;4744;52.576;13.568;2022-10-16T01:33:45;1.95;;;1.85;;
9409;SDS011;4744;52.576;13.568;2022-10-16T01:36:15;2.22;;;2.13;;
9409;SDS011;4744;52.576;13.568;2022-10-16T01:38:46;2.22;;;2.13;;
9409;SDS011;4744;52.576;13.568;2022-10-16T01:41:16;1.80;;;1.70;;
9409;SDS011;4744;52.576;13.568;2022-10-16T01:43:48;2.00;;;1.90;;
9409;SDS011;4744;52.576;13.568;2022-10-16T01:46:20;2.17;;;2.00;;
9409;SDS011;4744;52.576;13.568;2022-10-16T01:48:48;2.17;;;1.98;;
9409;SDS011;4744;52.576;13.568;2022-10-16T01:51:16;2.10;;;1.95;;
9409;SDS011;4744;52.576;13.568;2022-10-16T01:53:47;2.00;;;1.90;;
9409;SDS011;4744;52.576;13.568;2022-10-16T01:56:18;2.03;;;1.92;;
9409;SDS011;4744;52.576;13.568;2022-10-16T01:58:49;2.22;;;1.98;;
9409;SDS011;4744;52.576;13.568;2022-10-16T02:01:20;2.17;;;2.08;;
9409;SDS011;4744;52.576;13.568;2022-10-16T02:03:49;1.92;;;1.83;;
9409;SDS011;4744;52.576;13.568;2022-10-16T02:06:19;1.88;;;1.77;;
9409;SDS011;4744;52.576;13.568;2022-10-16T02:08:46;2.13;;;2.00;;
9409;SDS011;4744;52.576;13.568;2022-10-16T02:11:13;2.03;;;1.85;;
9409;SDS011;4744;52.576;13.568;2022-10-16T02:13:41;2.33;;;2.13;;
9409;SDS011;4744;52.576;13.568;2022-10-16T02:16:14;2.08;;;1.90;;
9409;SDS011;4744;52.576;13.568;2022-10-16T02:18:41;2.38;;;2.05;;
9409;SDS011;4744;52.576;13.568;2022-10-16T02:21:11;2.50;;;2.30;;
9409;SDS011;4744;52.576;13.568;2022-10-16T02:23:44;2.42;;;2.17;;
9409;SDS011;4744;52.576;13.568;2022-10-16T02:26:16;2.17;;;2.08;;
9409;SDS011;4744;52.576;13.568;2022-10-16T02:28:52;2.47;;;1.90;;
9409;SDS011;4744;52.576;13.568;2022-10-16T02:31:23;3.30;;;2.20;;
9409;SDS011;4744;52.576;13.568;2022-10-16T02:33:54;2.13;;;1.73;;
9409;SDS011;4744;52.576;13.568;2022-10-16T02:36:24;2.20;;;2.00;;
9409;SDS011;4744;52.576;13.568;2022-10-16T02:38:52;2.13;;;1.95;;
9409;SDS011;4744;52.576;13.568;2022-10-16T02:41:20;2.15;;;2.05;;
9409;SDS011;4744;52.576;13.568;2022-10-16T02:43:48;2.00;;;1.90;;
9409;SDS011;4744;52.576;13.568;2022-10-16T02:46:15;2.05;;;1.92;;
9409;SDS011;4744;52.576;13.568;2022-10-16T02:48:44;2.10;;;2.00;;
9409;SDS011;4744;52.576;13.568;2022-10-16T02:51:11;1.70;;;1.60;;
9409;SDS011;4744;52.576;13.568;2022-10-16T02:53:38;1.73;;;1.58;;
9409;SDS011;4744;52.576;13.568;2022-10-16T02:56:04;1.90;;;1.80;;
9409;SDS011;4744;52.576;13.568;2022-10-16T02:58:31;1.40;;;1.40;;
9409;SDS011;4744;52.576;13.568;2022-10-16T03:00:58;1.35;;;1.30;;
9409;SDS011;4744;52.576;13.568;2022-10-16T03:03:25;1.55;;;1.45;;
9409;SDS011;4744;52.576;13.568;2022-10-16T03:05:53;1.50;;;1.40;;
9409;SDS011;4744;52.576;13.568;2022-10-16T03:08:20;1.45;;;1.38;;
9409;SDS011;4744;52.576;13.568;2022-10-16T03:10:48;1.25;;;1.25;;
9409;SDS011;4744;52.576;13.568;2022-10-16T03:13:15;1.50;;;1.40;;
9409;SDS011;4744;52.576;13.568;2022-10-16T03:15:42;1.10;;;1.10;;
9409;SDS011;4744;52.576;13.568;2022-10-16T03:18:09;1.23;;;1.20;;
9409;SDS011;4744;52.576;13.568;2022-10-16T03:20:36;1.50;;;1.40;;
9409;SDS011;4744;52.576;13.568;2022-10-16T03:23:04;1.17;;;1.17;;
9409;SDS011;4744;52.576;13.568;2022-10-16T03:25:33;1.52;;;1.50;;
9409;SDS011;4744;52.576;13.568;2022-10-16T03:27:59;1.10;;;1.10;;
9409;SDS011;4744;52.576;13.568;2022-10-16T03:30:26;1.25;;;1.23;;
9409;SDS011;4744;52.576;13.568;2022-10-16T03:32:53;1.33;;;1.25;;
9409;SDS011;4744;52.576;13.568;2022-10-16T03:35:20;1.38;;;1.38;;
9409;SDS011;4744;52.576;13.568;2022-10-16T03:37:46;1.20;;;1.20;;
9409;SDS011;4744;52.576;13.568;2022-10-16T03:40:15;1.50;;;1.40;;
9409;SDS011;4744;52.576;13.568;2022-10-16T03:42:42;1.70;;;1.60;;
9409;SDS011;4744;52.576;13.568;2022-10-16T03:45:09;1.67;;;1.58;;
9409;SDS011;4744;52.576;13.568;2022-10-16T03:47:37;1.50;;;1.40;;
9409;SDS011;4744;52.576;13.568;2022-10-16T03:50:04;1.70;;;1.60;;
9409;SDS011;4744;52.576;13.568;2022-10-16T03:52:31;1.40;;;1.40;;
9409;SDS011;4744;52.576;13.568;2022-10-16T03:54:58;1.25;;;1.25;;
9409;SDS011;4744;52.576;13.568;2022-10-16T03:57:27;1.65;;;1.35;;
9409;SDS011;4744;52.576;13.568;2022-10-16T03:59:53;1.77;;;1.67;;
9409;SDS011;4744;52.576;13.568;2022-10-16T04:02:20;1.73;;;1.63;;
9409;SDS011;4744;52.576;13.568;2022-10-16T04:04:47;1.77;;;1.67;;
9409;SDS011;4744;52.576;13.568;2022-10-16T04:07:14;1.70;;;1.60;;
9409;SDS011;4744;52.576;13.568;2022-10-16T04:09:40;1.50;;;1.50;;
9409;SDS011;4744;52.576;13.568;2022-10-16T04:12:07;1.63;;;1.52;;
9409;SDS011;4744;52.576;13.568;2022-10-16T04:14:35;1.60;;;1.50;;
9409;SDS011;4744;52.576;13.568;2022-10-16T04:17:02;1.83;;;1.73;;
9409;SDS011;4744;52.576;13.568;2022-10-16T04:19:29;1.88;;;1.77;;
9409;SDS011;4744;52.576;13.568;2022-10-16T04:21:56;4.78;;;1.90;;
9409;SDS011;4744;52.576;13.568;2022-10-16T04:24:22;1.90;;;1.80;;
9409;SDS011;4744;52.576;13.568;2022-10-16T04:26:49;1.88;;;1.77;;
9409;SDS011;4744;52.576;13.568;2022-10-16T04:29:16;1.88;;;1.75;;
9409;SDS011;4744;52.576;13.568;2022-10-16T04:31:44;2.00;;;1.90;;
9409;SDS011;4744;52.576;13.568;2022-10-16T04:34:11;1.83;;;1.73;;
9409;SDS011;4744;52.576;13.568;2022-10-16T04:36:38;2.00;;;1.90;;
9409;SDS011;4744;52.576;13.568;2022-10-16T04:39:04;2.60;;;2.13;;
9409;SDS011;4744;52.576;13.568;2022-10-16T04:41:31;3.42;;;2.25;;
9409;SDS011;4744;52.576;13.568;2022-10-16T04:43:58;2.05;;;1.95;;
9409;SDS011;4744;52.576;13.568;2022-10-16T04:46:25;1.88;;;1.77;;
9409;SDS011;4744;52.576;13.568;2022-10-16T04:48:53;2.08;;;1.98;;
9409;SDS011;4744;52.576;13.568;2022-10-16T04:51:19;2.10;;;2.00;;
9409;SDS011;4744;52.576;13.568;2022-10-16T04:53:46;1.45;;;1.45;;
9409;SDS011;4744;52.576;13.568;2022-10-16T04:56:13;1.70;;;1.60;;
9409;SDS011;4744;52.576;13.568;2022-10-16T04:58:40;1.88;;;1.77;;
9409;SDS011;4744;52.576;13.568;2022-10-16T05:01:07;2.00;;;1.90;;
9409;SDS011;4744;52.576;13.568;2022-10-16T05:03:34;2.28;;;2.10;;
9409;SDS011;4744;52.576;13.568;2022-10-16T05:06:04;2.42;;;1.85;;
9409;SDS011;4744;52.576;13.568;2022-10-16T05:08:31;1.83;;;1.73;;
9409;SDS011;4744;52.576;13.568;2022-10-16T05:10:58;1.92;;;1.83;;
9409;SDS011;4744;52.576;13.568;2022-10-16T05:13:25;2.05;;;1.95;;
9409;SDS011;4744;52.576;13.568;2022-10-16T05:15:52;2.30;;;2.10;;
9409;SDS011;4744;52.576;13.568;2022-10-16T05:18:19;2.30;;;2.10;;
9409;SDS011;4744;52.576;13.568;2022-10-16T05:20:45;2.22;;;2.13;;
9409;SDS011;4744;52.576;13.568;2022-10-16T05:23:13;2.10;;;2.00;;
9409;SDS011;4744;52.576;13.568;2022-10-16T05:25:40;2.20;;;2.00;;
9409;SDS011;4744;52.576;13.568;2022-10-16T05:28:07;1.98;;;1.88;;
9409;SDS011;4744;52.576;13.568;2022-10-16T05:30:34;2.58;;;2.38;;
9409;SDS011;4744;52.576;13.568;2022-10-16T05:33:03;2.20;;;2.00;;
9409;SDS011;4744;52.576;13.568;2022-10-16T05:35:30;2.35;;;2.15;;
9409;SDS011;4744;52.576;13.568;2022-10-16T05:37:57;1.73;;;1.63;;
9409;SDS011;4744;52.576;13.568;2022-10-16T05:40:25;2.10;;;2.00;;
9409;SDS011;4744;52.576;13.568;2022-10-16T05:42:54;3.55;;;2.10;;
9409;SDS011;4744;52.576;13.568;2022-10-16T05:45:21;2.50;;;2.30;;
9409;SDS011;4744;52.576;13.568;2022-10-16T05:47:48;2.30;;;2.10;;
9409;SDS011;4744;52.576;13.568;2022-10-16T05:50:15;2.22;;;2.00;;
9409;SDS011;4744;52.576;13.568;2022-10-16T05:52:42;2.22;;;2.13;;
9409;SDS011;4744;52.576;13.568;2022-10-16T05:55:08;2.20;;;2.00;;
9409;SDS011;4744;52.576;13.568;2022-10-16T05:57:36;2.05;;;1.95;;
9409;SDS011;4744;52.576;13.568;2022-10-16T06:00:04;2.38;;;2.28;;
9409;SDS011;4744;52.576;13.568;2022-10-16T06:02:31;2.25;;;2.05;;
9409;SDS011;4744;52.576;13.568;2022-10-16T06:04:58;2.00;;;1.90;;
9409;SDS011;4744;52.576;13.568;2022-10-16T06:07:25;2.30;;;2.10;;
9409;SDS011;4744;52.576;13.568;2022-10-16T06:09:52;2.20;;;2.10;;
9409;SDS011;4744;52.576;13.568;2022-10-16T06:12:19;3.38;;;2.00;;
9409;SDS011;4744;52.576;13.568;2022-10-16T06:14:47;2.13;;;2.00;;
9409;SDS011;4744;52.576;13.568;2022-10-16T06:17:14;2.30;;;2.20;;
9409;SDS011;4744;52.576;13.568;2022-10-16T06:19:41;3.20;;;2.40;;
9409;SDS011;4744;52.576;13.568;2022-10-16T06:22:08;2.00;;;1.90;;
9409;SDS011;4744;52.576;13.568;2022-10-16T06:24:35;2.45;;;2.25;;
9409;SDS011;4744;52.576;13.568;2022-10-16T06:27:02;2.42;;;2.00;;
9409;SDS011;4744;52.576;13.568;2022-10-16T06:29:29;2.35;;;2.15;;
9409;SDS011;4744;52.576;13.568;2022-10-16T06:31:57;2.40;;;2.17;;
9409;SDS011;4744;52.576;13.568;2022-10-16T06:34:24;2.20;;;2.10;;
9409;SDS011;4744;52.576;13.568;2022-10-16T06:36:51;2.45;;;2.03;;
9409;SDS011;4744;52.576;13.568;2022-10-16T06:39:17;2.30;;;2.20;;
9409;SDS011;4744;52.576;13.568;2022-10-16T06:41:44;3.47;;;2.22;;
9409;SDS011;4744;52.576;13.568;2022-10-16T06:44:11;2.33;;;2.13;;
9409;SDS011;4744;52.576;13.568;2022-10-16T06:46:38;2.67;;;2.22;;
9409;SDS011;4744;52.576;13.568;2022-10-16T06:49:06;2.15;;;2.05;;
9409;SDS011;4744;52.576;13.568;2022-10-16T06:51:32;2.40;;;2.20;;
9409;SDS011;4744;52.576;13.568;2022-10-16T06:54:01;2.20;;;2.10;;
9409;SDS011;4744;52.576;13.568;2022-10-16T06:56:28;2.17;;;1.98;;
9409;SDS011;4744;52.576;13.568;2022-10-16T06:58:56;2.20;;;2.10;;
9409;SDS011;4744;52.576;13.568;2022-10-16T07:01:23;2.22;;;2.00;;
9409;SDS011;4744;52.576;13.568;2022-10-16T07:03:51;1.95;;;1.85;;
9409;SDS011;4744;52.576;13.568;2022-10-16T07:06:20;2.60;;;1.83;;
9409;SDS011;4744;52.576;13.568;2022-10-16T07:08:50;1.90;;;1.80;;
9409;SDS011;4744;52.576;13.568;2022-10-16T07:11:17;2.00;;;1.90;;
9409;SDS011;4744;52.576;13.568;2022-10-16T07:13:45;2.00;;;1.90;;
9409;SDS011;4744;52.576;13.568;2022-10-16T07:16:13;2.00;;;1.90;;
9409;SDS011;4744;52.576;13.568;2022-10-16T07:18:42;2.20;;;2.00;;
9409;SDS011;4744;52.576;13.568;2022-10-16T07:21:11;2.20;;;2.10;;
9409;SDS011;4744;52.576;13.568;2022-10-16T07:23:41;1.95;;;1.77;;
9409;SDS011;4744;52.576;13.568;2022-10-16T07:26:08;1.85;;;1.75;;
9409;SDS011;4744;52.576;13.568;2022-10-16T07:28:36;1.90;;;1.80;;
9409;SDS011;4744;52.576;13.568;2022-10-16T07:31:04;2.58;;;1.90;;
9409;SDS011;4744;52.576;13.568;2022-10-16T07:33:32;2.20;;;2.00;;
9409;SDS011;4744;52.576;13.568;2022-10-16T07:36:00;1.73;;;1.63;;
9409;SDS011;4744;52.576;13.568;2022-10-16T07:38:27;1.95;;;1.73;;
9409;SDS011;4744;52.576;13.568;2022-10-16T07:40:58;1.67;;;1.58;;
9409;SDS011;4744;52.576;13.568;2022-10-16T07:43:26;1.83;;;1.65;;
9409;SDS011;4744;52.576;13.568;2022-10-16T07:45:53;1.50;;;1.50;;
9409;SDS011;4744;52.576;13.568;2022-10-16T07:48:21;1.75;;;1.65;;
9409;SDS011;4744;52.576;13.568;2022-10-16T07:50:48;1.83;;;1.70;;
9409;SDS011;4744;52.576;13.568;2022-10-16T07:53:15;1.85;;;1.70;;
9409;SDS011;4744;52.576;13.568;2022-10-16T07:55:42;1.75;;;1.65;;
9409;SDS011;4744;52.576;13.568;2022-10-16T07:58:10;1.73;;;1.63;;
9409;SDS011;4744;52.576;13.568;2022-10-16T08:00:37;1.63;;;1.52;;
9409;SDS011;4744;52.576;13.568;2022-10-16T08:03:04;1.80;;;1.70;;
9409;SDS011;4744;52.576;13.568;2022-10-16T08:05:31;1.83;;;1.73;;
9409;SDS011;4744;52.576;13.568;2022-10-16T08:08:00;2.30;;;1.70;;
9409;SDS011;4744;52.576;13.568;2022-10-16T08:10:27;1.60;;;1.50;;
9409;SDS011;4744;52.576;13.568;2022-10-16T08:12:56;1.88;;;1.77;;
9409;SDS011;4744;52.576;13.568;2022-10-16T08:15:25;1.70;;;1.60;;
9409;SDS011;4744;52.576;13.568;2022-10-16T08:17:55;1.77;;;1.67;;
9409;SDS011;4744;52.576;13.568;2022-10-16T08:20:23;2.05;;;1.92;;
9409;SDS011;4744;52.576;13.568;2022-10-16T08:22:50;1.63;;;1.52;;
9409;SDS011;4744;52.576;13.568;2022-10-16T08:25:17;1.90;;;1.80;;
9409;SDS011;4744;52.576;13.568;2022-10-16T08:27:44;1.90;;;1.80;;
9409;SDS011;4744;52.576;13.568;2022-10-16T08:30:11;3.53;;;2.00;;
9409;SDS011;4744;52.576;13.568;2022-10-16T08:32:40;2.75;;;1.70;;
9409;SDS011;4744;52.576;13.568;2022-10-16T08:35:08;1.70;;;1.60;;
9409;SDS011;4744;52.576;13.568;2022-10-16T08:37:35;1.58;;;1.40;;
9409;SDS011;4744;52.576;13.568;2022-10-16T08:40:02;1.73;;;1.63;;
9409;SDS011;4744;52.576;13.568;2022-10-16T08:42:35;1.60;;;1.50;;
9409;SDS011;4744;52.576;13.568;2022-10-16T08:45:20;2.78;;;1.60;;
9409;SDS011;4744;52.576;13.568;2022-10-16T08:47:56;2.45;;;1.33;;
9409;SDS011;4744;52.576;13.568;2022-10-16T08:50:32;1.70;;;1.60;;
9409;SDS011;4744;52.576;13.568;2022-10-16T08:53:04;1.30;;;1.30;;
9409;SDS011;4744;52.576;13.568;2022-10-16T08:55:33;1.58;;;1.48;;
9409;SDS011;4744;52.576;13.568;2022-10-16T08:58:09;1.30;;;1.30;;
9409;SDS011;4744;52.576;13.568;2022-10-16T09:00:39;1.70;;;1.30;;
9409;SDS011;4744;52.576;13.568;2022-10-16T09:03:10;1.65;;;1.20;;
9409;SDS011;4744;52.576;13.568;2022-10-16T09:05:54;1.48;;;1.38;;
9409;SDS011;4744;52.576;13.568;2022-10-16T09:08:34;1.65;;;1.52;;
9409;SDS011;4744;52.576;13.568;2022-10-16T09:11:11;3.20;;;1.42;;
9409;SDS011;4744;52.576;13.568;2022-10-16T09:13:45;1.27;;;1.23;;
9409;SDS011;4744;52.576;13.568;2022-10-16T09:16:18;1.20;;;1.20;;
9409;SDS011;4744;52.576;13.568;2022-10-16T09:18:53;1.45;;;1.35;;
9409;SDS011;4744;52.576;13.568;2022-10-16T09:21:25;3.08;;;1.20;;
9409;SDS011;4744;52.576;13.568;2022-10-16T09:23:56;1.27;;;1.17;;
9409;SDS011;4744;52.576;13.568;2022-10-16T09:26:25;1.15;;;1.15;;
9409;SDS011;4744;52.576;13.568;2022-10-16T09:28:52;1.45;;;1.25;;
9409;SDS011;4744;52.576;13.568;2022-10-16T09:31:20;1.10;;;1.10;;
9409;SDS011;4744;52.576;13.568;2022-10-16T09:33:50;1.40;;;1.30;;
9409;SDS011;4744;52.576;13.568;2022-10-16T09:36:21;1.10;;;1.10;;
9409;SDS011;4744;52.576;13.568;2022-10-16T09:38:50;1.40;;;1.30;;
9409;SDS011;4744;52.576;13.568;2022-10-16T09:41:27;1.13;;;1.10;;
9409;SDS011;4744;52.576;13.568;2022-10-16T09:43:54;1.10;;;1.10;;
9409;SDS011;4744;52.576;13.568;2022-10-16T09:46:26;0.68;;;0.68;;
9409;SDS011;4744;52.576;13.568;2022-10-16T09:48:56;0.85;;;0.77;;
9409;SDS011;4744;52.576;13.568;2022-10-16T09:51:25;0.98;;;0.98;;
9409;SDS011;4744;52.576;13.568;2022-10-16T09:53:55;1.17;;;1.08;;
9409;SDS011;4744;52.576;13.568;2022-10-16T09:56:24;1.40;;;1.10;;
9409;SDS011;4744;52.576;13.568;2022-10-16T09:58:53;1.80;;;1.30;;
9409;SDS011;4744;52.576;13.568;2022-10-16T10:01:21;2.63;;;1.30;;
9409;SDS011;4744;52.576;13.568;2022-10-16T10:03:55;1.58;;;1.30;;
9409;SDS011;4744;52.576;13.568;2022-10-16T10:06:27;1.27;;;1.20;;
9409;SDS011;4744;52.576;13.568;2022-10-16T10:08:56;1.58;;;1.25;;
9409;SDS011;4744;52.576;13.568;2022-10-16T10:11:39;0.82;;;0.82;;
9409;SDS011;4744;52.576;13.568;2022-10-16T10:14:11;0.80;;;0.80;;
9409;SDS011;4744;52.576;13.568;2022-10-16T10:16:43;1.08;;;1.05;;
9409;SDS011;4744;52.576;13.568;2022-10-16T10:19:14;1.00;;;1.00;;
9409;SDS011;4744;52.576;13.568;2022-10-16T10:21:42;0.98;;;0.98;;
9409;SDS011;4744;52.576;13.568;2022-10-16T10:24:10;1.80;;;1.00;;
9409;SDS011;4744;52.576;13.568;2022-10-16T10:26:38;1.05;;;1.00;;
9409;SDS011;4744;52.576;13.568;2022-10-16T10:29:13;1.00;;;1.00;;
9409;SDS011;4744;52.576;13.568;2022-10-16T10:31:49;1.13;;;1.13;;
9409;SDS011;4744;52.576;13.568;2022-10-16T10:34:31;1.17;;;1.08;;
9409;SDS011;4744;52.576;13.568;2022-10-16T10:37:08;1.23;;;1.20;;
9409;SDS011;4744;52.576;13.568;2022-10-16T10:39:47;1.08;;;0.98;;
9409;SDS011;4744;52.576;13.568;2022-10-16T10:42:22;1.45;;;0.90;;
9409;SDS011;4744;52.576;13.568;2022-10-16T10:45:02;1.02;;;0.80;;
9409;SDS011;4744;52.576;13.568;2022-10-16T10:48:12;0.80;;;0.80;;
9409;SDS011;4744;52.576;13.568;2022-10-16T10:50:51;1.40;;;0.70;;
9409;SDS011;4744;52.576;13.568;2022-10-16T10:53:25;0.70;;;0.70;;
9409;SDS011;4744;52.576;13.568;2022-10-16T10:56:05;0.90;;;0.90;;
9409;SDS011;4744;52.576;13.568;2022-10-16T10:58:54;1.05;;;0.88;;
9409;SDS011;4744;52.576;13.568;2022-10-16T11:01:44;0.93;;;0.90;;
9409;SDS011;4744;52.576;13.568;2022-10-16T11:04:22;0.93;;;0.90;;
9409;SDS011;4744;52.576;13.568;2022-10-16T11:07:18;1.70;;;0.80;;
9409;SDS011;4744;52.576;13.568;2022-10-16T11:09:48;0.60;;;0.60;;
9409;SDS011;4744;52.576;13.568;2022-10-16T11:12:19;0.73;;;0.73;;
9409;SDS011;4744;52.576;13.568;2022-10-16T11:14:50;2.50;;;0.70;;
9409;SDS011;4744;52.576;13.568;2022-10-16T11:17:23;0.80;;;0.80;;
9409;SDS011;4744;52.576;13.568;2022-10-16T11:19:55;1.27;;;0.68;;
9409;SDS011;4744;52.576;13.568;2022-10-16T11:22:29;0.73;;;0.73;;
9409;SDS011;4744;52.576;13.568;2022-10-16T11:25:00;0.80;;;0.80;;
9409;SDS011;4744;52.576;13.568;2022-10-16T11:27:39;1.83;;;0.80;;
9409;SDS011;4744;52.576;13.568;2022-10-16T11:30:12;0.93;;;0.80;;
9409;SDS011;4744;52.576;13.568;2022-10-16T11:32:44;0.63;;;0.60;;
9409;SDS011;4744;52.576;13.568;2022-10-16T11:35:19;0.60;;;0.60;;
9409;SDS011;4744;52.576;13.568;2022-10-16T11:37:52;0.98;;;0.98;;
9409;SDS011;4744;52.576;13.568;2022-10-16T11:40:23;0.70;;;0.70;;
9409;SDS011;4744;52.576;13.568;2022-10-16T11:42:55;0.80;;;0.80;;
9409;SDS011;4744;52.576;13.568;2022-10-16T11:45:30;1.05;;;0.70;;
9409;SDS011;4744;52.576;13.568;2022-10-16T11:48:00;1.05;;;0.52;;
9409;SDS011;4744;52.576;13.568;2022-10-16T11:50:34;0.77;;;0.77;;
9409;SDS011;4744;52.576;13.568;2022-10-16T11:53:11;0.93;;;0.80;;
9409;SDS011;4744;52.576;13.568;2022-10-16T11:55:44;0.82;;;0.82;;
9409;SDS011;4744;52.576;13.568;2022-10-16T11:58:15;0.70;;;0.70;;
9409;SDS011;4744;52.576;13.568;2022-10-16T12:00:51;1.15;;;0.70;;
9409;SDS011;4744;52.576;13.568;2022-10-16T12:03:25;1.65;;;0.90;;
9409;SDS011;4744;52.576;13.568;2022-10-16T12:05:58;0.80;;;0.80;;
9409;SDS011;4744;52.576;13.568;2022-10-16T12:08:38;1.15;;;0.50;;
9409;SDS011;4744;52.576;13.568;2022-10-16T12:11:06;0.93;;;0.70;;
9409;SDS011;4744;52.576;13.568;2022-10-16T12:13:35;0.47;;;0.47;;
9409;SDS011;4744;52.576;13.568;2022-10-16T12:16:04;0.50;;;0.50;;
9409;SDS011;4744;52.576;13.568;2022-10-16T12:18:33;0.50;;;0.50;;
9409;SDS011;4744;52.576;13.568;2022-10-16T12:20:59;0.85;;;0.65;;
9409;SDS011;4744;52.576;13.568;2022-10-16T12:23:30;0.80;;;0.80;;
9409;SDS011;4744;52.576;13.568;2022-10-16T12:26:00;0.73;;;0.73;;
9409;SDS011;4744;52.576;13.568;2022-10-16T12:28:28;0.68;;;0.68;;
9409;SDS011;4744;52.576;13.568;2022-10-16T12:30:57;0.52;;;0.52;;
9409;SDS011;4744;52.576;13.568;2022-10-16T12:33:26;0.40;;;0.40;;
9409;SDS011;4744;52.576;13.568;2022-10-16T12:35:55;0.52;;;0.52;;
9409;SDS011;4744;52.576;13.568;2022-10-16T12:38:25;0.60;;;0.60;;
9409;SDS011;4744;52.576;13.568;2022-10-16T12:40:55;0.98;;;0.68;;
9409;SDS011;4744;52.576;13.568;2022-10-16T12:43:28;1.73;;;0.60;;
9409;SDS011;4744;52.576;13.568;2022-10-16T12:46:04;0.60;;;0.60;;
9409;SDS011;4744;52.576;13.568;2022-10-16T12:48:47;3.50;;;0.88;;
9409;SDS011;4744;52.576;13.568;2022-10-16T12:51:21;0.60;;;0.60;;
9409;SDS011;4744;52.576;13.568;2022-10-16T12:53:57;0.60;;;0.60;;
9409;SDS011;4744;52.576;13.568;2022-10-16T12:56:26;0.85;;;0.60;;
9409;SDS011;4744;52.576;13.568;2022-10-16T12:59:07;0.52;;;0.40;;
9409;SDS011;4744;52.576;13.568;2022-10-16T13:01:48;1.80;;;0.50;;
9409;SDS011;4744;52.576;13.568;2022-10-16T13:04:37;0.50;;;0.50;;
9409;SDS011;4744;52.576;13.568;2022-10-16T13:07:27;0.85;;;0.80;;
9409;SDS011;4744;52.576;13.568;2022-10-16T13:10:09;1.63;;;0.43;;
9409;SDS011;4744;52.576;13.568;2022-10-16T13:15:54;1.25;;;0.50;;
9409;SDS011;4744;52.576;13.568;2022-10-16T13:18:41;1.55;;;0.50;;
9409;SDS011;4744;52.576;13.568;2022-10-16T13:21:18;0.25;;;0.25;;
9409;SDS011;4744;52.576;13.568;2022-10-16T13:23:57;1.88;;;0.60;;
9409;SDS011;4744;52.576;13.568;2022-10-16T13:26:31;1.60;;;0.60;;
9409;SDS011;4744;52.576;13.568;2022-10-16T13:29:05;0.73;;;0.30;;
9409;SDS011;4744;52.576;13.568;2022-10-16T13:31:33;0.70;;;0.70;;
9409;SDS011;4744;52.576;13.568;2022-10-16T13:34:03;0.40;;;0.40;;
9409;SDS011;4744;52.576;13.568;2022-10-16T13:36:42;0.30;;;0.30;;
9409;SDS011;4744;52.576;13.568;2022-10-16T13:39:11;1.38;;;0.50;;
9409;SDS011;4744;52.576;13.568;2022-10-16T13:41:40;2.15;;;0.52;;
9409;SDS011;4744;52.576;13.568;2022-10-16T13:44:11;2.08;;;0.88;;
9409;SDS011;4744;52.576;13.568;2022-10-16T13:46:43;1.45;;;0.40;;
9409;SDS011;4744;52.576;13.568;2022-10-16T13:49:13;0.60;;;0.60;;
9409;SDS011;4744;52.576;13.568;2022-10-16T13:51:41;0.57;;;0.57;;
9409;SDS011;4744;52.576;13.568;2022-10-16T13:54:20;2.22;;;0.60;;
9409;SDS011;4744;52.576;13.568;2022-10-16T13:56:47;0.50;;;0.50;;
9409;SDS011;4744;52.576;13.568;2022-10-16T13:59:22;0.63;;;0.40;;
9409;SDS011;4744;52.576;13.568;2022-10-16T14:01:52;0.47;;;0.47;;
9409;SDS011;4744;52.576;13.568;2022-10-16T14:04:20;0.73;;;0.50;;
9409;SDS011;4744;52.576;13.568;2022-10-16T14:06:49;1.05;;;0.50;;
9409;SDS011;4744;52.576;13.568;2022-10-16T14:09:19;0.25;;;0.25;;
9409;SDS011;4744;52.576;13.568;2022-10-16T14:11:49;1.65;;;0.50;;
9409;SDS011;4744;52.576;13.568;2022-10-16T14:14:18;0.82;;;0.40;;
9409;SDS011;4744;52.576;13.568;2022-10-16T14:16:46;0.40;;;0.40;;
9409;SDS011;4744;52.576;13.568;2022-10-16T14:19:17;2.72;;;0.70;;
9409;SDS011;4744;52.576;13.568;2022-10-16T14:21:47;0.63;;;0.47;;
9409;SDS011;4744;52.576;13.568;2022-10-16T14:24:22;0.60;;;0.60;;
9409;SDS011;4744;52.576;13.568;2022-10-16T14:26:52;0.40;;;0.40;;
9409;SDS011;4744;52.576;13.568;2022-10-16T14:29:20;0.40;;;0.40;;
9409;SDS011;4744;52.576;13.568;2022-10-16T14:31:54;0.40;;;0.40;;
9409;SDS011;4744;52.576;13.568;2022-10-16T14:34:27;0.40;;;0.40;;
9409;SDS011;4744;52.576;13.568;2022-10-16T14:36:57;0.68;;;0.45;;
9409;SDS011;4744;52.576;13.568;2022-10-16T14:39:27;0.50;;;0.50;;
9409;SDS011;4744;52.576;13.568;2022-10-16T14:41:55;0.30;;;0.30;;
9409;SDS011;4744;52.576;13.568;2022-10-16T14:44:26;0.98;;;0.70;;
9409;SDS011;4744;52.576;13.568;2022-10-16T14:46:55;0.63;;;0.63;;
9409;SDS011;4744;52.576;13.568;2022-10-16T14:49:24;2.22;;;1.00;;
9409;SDS011;4744;52.576;13.568;2022-10-16T14:51:54;0.63;;;0.63;;
9409;SDS011;4744;52.576;13.568;2022-10-16T14:54:21;1.33;;;0.80;;
9409;SDS011;4744;52.576;13.568;2022-10-16T14:56:48;1.20;;;0.40;;
9409;SDS011;4744;52.576;13.568;2022-10-16T14:59:19;0.47;;;0.40;;
9409;SDS011;4744;52.576;13.568;2022-10-16T15:01:54;1.23;;;0.80;;
9409;SDS011;4744;52.576;13.568;2022-10-16T15:04:21;0.43;;;0.43;;
9409;SDS011;4744;52.576;13.568;2022-10-16T15:06:48;1.20;;;0.70;;
9409;SDS011;4744;52.576;13.568;2022-10-16T15:09:16;0.60;;;0.60;;
9409;SDS011;4744;52.576;13.568;2022-10-16T15:11:43;1.17;;;0.65;;
9409;SDS011;4744;52.576;13.568;2022-10-16T15:14:11;0.47;;;0.47;;
9409;SDS011;4744;52.576;13.568;2022-10-16T15:16:38;0.52;;;0.52;;
9409;SDS011;4744;52.576;13.568;2022-10-16T15:19:05;1.95;;;0.60;;
9409;SDS011;4744;52.576;13.568;2022-10-16T15:21:32;0.73;;;0.70;;
9409;SDS011;4744;52.576;13.568;2022-10-16T15:23:59;0.70;;;0.70;;